Ferintosh, Canada
Current Conditions -  °F | °C
As of 2:00 AM on Sunday 23 Nov 2014 (Local Time) from CYEG Reporting Station
Overcast Overcast  
Wind Chill:   Ceiling: 2000
Heat Index: 18°   Visibility: 15mi
Dew Point: 14°   Wind: 8mph
Humidity: 86%   Direction: 350°N
Pressure: 29.73"   Gusts: NA
Location:  52.77°N, 112.97°W
Report Text: CYEG 230900Z 35007KT 15SM FEW013 BKN020 OVC050 M08/M10 A2973 RMK SC2SC3SC3 SLP109
Loading
Personal Weather Stations






























Interactive Weather Map New forecast layout! Learn more

10-Day Weather Forecast

Advertisements
Track Severe Weather on mobile